Latest Weather Observations for Fawkner Beacon

IDV60901

Issued at 2:01 am EDT Monday 2 March 2015 (issued every 10 minutes, with the page automatically refreshed every 10 minutes)

About weather observations | Map of Melbourne area stations | Latest observations for Melbourne area | Other Formats
Station Details ID: 086376 Name: FAWKNER BEACON Lat: -37.91 Lon: 144.93 Height: 17.0 m
Data from the previous 72 hours. | See also: Recent months for locations in Victoria
Date/Time
EDT
Tmp

°C
App
Tmp
°C
Dew
Point
°C
Rel
Hum
%
Delta-T

°C
Wind Press
QNH
hPa
Press
MSL
hPa
Rain
since
9 am
mm
Dir
 
Spd
km/h
Gust
km/h
Spd
kts
Gust
kts
02/02:00am - - - - - SSE 11 17 6 9 - - -
02/01:30am - - - - - S 13 20 7 11 - - -
02/01:00am - - - - - S 13 20 7 11 - - -
02/12:30am - - - - - SSE 15 24 8 13 - - -
 
Date/Time
EDT
Tmp

°C
App
Tmp
°C
Dew
Point
°C
Rel
Hum
%
Delta-T

°C
Wind Press
QNH
hPa
Press
MSL
hPa
Rain
since
9 am
mm
Dir
 
Spd
km/h
Gust
km/h
Spd
kts
Gust
kts
01/11:30pm - - - - - SSE 22 28 12 15 - - -
01/11:00pm - - - - - SSE 24 28 13 15 - - -
01/10:30pm - - - - - SSE 22 28 12 15 - - -
01/10:00pm - - - - - SSE 26 32 14 17 - - -
01/09:30pm - - - - - SSE 28 33 15 18 - - -
01/09:00pm - - - - - SSE 28 32 15 17 - - -
01/08:30pm - - - - - SSE 30 35 16 19 - - -
01/08:00pm - - - - - SSE 30 39 16 21 - - -
01/07:30pm - - - - - SSE 32 39 17 21 - - -
01/07:00pm - - - - - SSE 32 39 17 21 - - -
01/06:30pm - - - - - SSE 32 41 17 22 - - -
01/06:00pm - - - - - SSE 35 43 19 23 - - -
01/05:30pm - - - - - SSE 33 43 18 23 - - -
01/05:00pm - - - - - SSE 33 41 18 22 - - -
01/04:30pm - - - - - SSE 32 41 17 22 - - -
01/04:00pm - - - - - SSE 35 43 19 23 - - -
01/03:30pm - - - - - SSE 32 39 17 21 - - -
01/03:00pm - - - - - SSE 32 35 17 19 - - -
01/02:30pm - - - - - S 30 35 16 19 - - -
01/02:00pm - - - - - S 30 35 16 19 - - -
01/01:30pm - - - - - S 28 33 15 18 - - -
01/01:00pm - - - - - S 30 35 16 19 - - -
01/12:30pm - - - - - S 28 35 15 19 - - -
01/12:00pm - - - - - S 28 35 15 19 - - -
01/11:30am - - - - - S 28 35 15 19 - - -
01/11:00am - - - - - S 30 39 16 21 - - -
01/10:30am - - - - - S 22 30 12 16 - - -
01/10:00am - - - - - SSW 20 26 11 14 - - -
01/09:30am - - - - - SSW 24 30 13 16 - - -
01/09:00am - - - - - SSW 26 32 14 17 - - -
01/08:30am - - - - - SSW 24 32 13 17 - - -
01/08:00am - - - - - SSW 26 33 14 18 - - -
01/07:30am - - - - - SW 28 39 15 21 - - -
01/07:00am - - - - - SSW 30 39 16 21 - - -
01/06:30am - - - - - SSW 33 43 18 23 - - -
01/06:00am - - - - - SW 33 43 18 23 - - -
01/05:30am - - - - - SW 28 33 15 18 - - -
01/05:00am - - - - - SSW 41 46 22 25 - - -
01/04:30am - - - - - SSW 37 44 20 24 - - -
01/04:00am - - - - - SSW 39 46 21 25 - - -
01/03:30am - - - - - SSW 43 52 23 28 - - -
01/03:00am - - - - - S 41 52 22 28 - - -
01/02:30am - - - - - S 43 52 23 28 - - -
01/02:00am - - - - - S 44 50 24 27 - - -
01/01:30am - - - - - SSW 35 43 19 23 - - -
01/01:00am - - - - - S 28 33 15 18 - - -
01/12:30am - - - - - WNW 17 28 9 15 - - -
01/12:00am - - - - - N 17 20 9 11 - - -
 
Date/Time
EDT
Tmp

°C
App
Tmp
°C
Dew
Point
°C
Rel
Hum
%
Delta-T

°C
Wind Press
QNH
hPa
Press
MSL
hPa
Rain
since
9 am
mm
Dir
 
Spd
km/h
Gust
km/h
Spd
kts
Gust
kts
28/11:30pm - - - - - N 15 20 8 11 - - -
28/11:00pm - - - - - NNW 6 7 3 4 - - -
28/10:30pm - - - - - WSW 15 20 8 11 - - -
28/10:00pm - - - - - SSW 17 26 9 14 - - -
28/09:30pm - - - - - S 41 50 22 27 - - -
28/09:17pm - - - - - SSW 44 52 24 28 - - -
28/09:00pm - - - - - SSW 57 69 31 37 - - -
28/08:48pm - - - - - SW 72 89 39 48 - - -
28/08:45pm - - - - - SW 76 91 41 49 - - -
28/08:30pm - - - - - SW 76 132 41 71 - - -
28/08:26pm - - - - - SW 56 128 30 69 - - -
28/08:25pm - - - - - SW 50 96 27 52 - - -
28/08:23pm - - - - - SSW 41 91 22 49 - - -
28/08:17pm - - - - - SSW 35 43 19 23 - - -
28/08:00pm - - - - - NNE 11 28 6 15 - - -
28/07:30pm - - - - - N 32 35 17 19 - - -
28/07:00pm - - - - - N 28 32 15 17 - - -
28/06:30pm - - - - - N 33 39 18 21 - - -
28/06:00pm - - - - - N 28 33 15 18 - - -
28/05:30pm - - - - - N 20 26 11 14 - - -
28/05:00pm - - - - - N 17 24 9 13 - - -
28/04:30pm - - - - - N 28 35 15 19 - - -
28/04:00pm - - - - - N 28 32 15 17 - - -
28/03:30pm - - - - - N 17 22 9 12 - - -
28/03:00pm - - - - - N 13 17 7 9 - - -
28/02:30pm - - - - - N 15 17 8 9 - - -
28/02:00pm - - - - - N 22 26 12 14 - - -
28/01:30pm - - - - - N 30 33 16 18 - - -
28/01:00pm - - - - - N 30 33 16 18 - - -
28/12:30pm - - - - - N 26 30 14 16 - - -
28/12:00pm - - - - - N 22 26 12 14 - - -
28/11:30am - - - - - NNW 15 22 8 12 - - -
28/11:00am - - - - - N 24 28 13 15 - - -
28/10:30am - - - - - N 30 33 16 18 - - -
28/10:00am - - - - - N 28 32 15 17 - - -
28/09:30am - - - - - N 24 28 13 15 - - -
28/09:00am - - - - - N 22 26 12 14 - - -
28/08:30am - - - - - N 24 28 13 15 - - -
28/08:00am - - - - - N 22 24 12 13 - - -
28/07:30am - - - - - NNE 20 24 11 13 - - -
28/07:00am - - - - - N 15 22 8 12 - - -
28/06:30am - - - - - NNW 9 15 5 8 - - -
28/06:00am - - - - - NW 26 32 14 17 - - -
28/05:30am - - - - - NE 13 17 7 9 - - -
28/05:00am - - - - - NE 13 17 7 9 - - -
28/04:30am - - - - - NE 15 20 8 11 - - -
28/04:00am - - - - - NE 17 20 9 11 - - -
28/03:30am - - - - - NE 11 15 6 8 - - -
28/03:00am - - - - - E 13 17 7 9 - - -
28/02:30am - - - - - ENE 19 24 10 13 - - -
28/02:00am - - - - - ENE 13 17 7 9 - - -
28/01:30am - - - - - E 15 17 8 9 - - -
28/01:00am - - - - - ESE 22 26 12 14 - - -
28/12:30am - - - - - ESE 15 20 8 11 - - -
28/12:00am - - - - - ESE 13 15 7 8 - - -
 
Date/Time
EDT
Tmp

°C
App
Tmp
°C
Dew
Point
°C
Rel
Hum
%
Delta-T

°C
Wind Press
QNH
hPa
Press
MSL
hPa
Rain
since
9 am
mm
Dir
 
Spd
km/h
Gust
km/h
Spd
kts
Gust
kts
27/11:30pm - - - - - E 13 15 7 8 - - -
27/11:00pm - - - - - SE 11 15 6 8 - - -
27/10:30pm - - - - - ESE 13 17 7 9 - - -
27/10:00pm - - - - - SE 11 15 6 8 - - -
27/09:30pm - - - - - SE 15 17 8 9 - - -
27/09:00pm - - - - - SE 17 22 9 12 - - -
27/08:30pm - - - - - SE 24 26 13 14 - - -
27/08:00pm - - - - - SE 22 26 12 14 - - -
27/07:30pm - - - - - SE 22 26 12 14 - - -
27/07:00pm - - - - - ESE 24 28 13 15 - - -
27/06:30pm - - - - - ESE 28 32 15 17 - - -
27/06:00pm - - - - - SE 28 32 15 17 - - -
27/05:30pm - - - - - SE 24 28 13 15 - - -
27/05:00pm - - - - - SE 22 26 12 14 - - -
27/04:30pm - - - - - SE 20 24 11 13 - - -
27/04:00pm - - - - - SE 17 20 9 11 - - -
27/03:30pm - - - - - SSE 13 15 7 8 - - -
27/03:00pm - - - - - SSE 13 17 7 9 - - -
27/02:30pm - - - - - SSE 13 17 7 9 - - -
27/02:00pm - - - - - S 11 13 6 7 - - -
27/01:30pm - - - - - S 9 11 5 6 - - -
27/01:00pm - - - - - S 9 13 5 7 - - -
27/12:30pm - - - - - S 9 11 5 6 - - -
27/12:00pm - - - - - CALM 0 6 0 3 - - -
27/11:30am - - - - - SW 9 11 5 6 - - -
27/11:00am - - - - - W 9 13 5 7 - - -
27/10:30am - - - - - W 7 11 4 6 - - -
27/10:00am - - - - - NW 7 11 4 6 - - -
27/09:30am - - - - - NW 9 11 5 6 - - -
27/09:00am - - - - - NW 9 15 5 8 - - -
27/08:30am - - - - - NNW 11 17 6 9 - - -
27/08:00am - - - - - N 9 13 5 7 - - -
27/07:30am - - - - - N 9 11 5 6 - - -
27/07:00am - - - - - N 9 11 5 6 - - -
27/06:30am - - - - - N 9 13 5 7 - - -
27/06:00am - - - - - NNE 7 11 4 6 - - -
27/05:30am - - - - - NNE 6 9 3 5 - - -
27/05:00am - - - - - NE 7 9 4 5 - - -
27/04:30am - - - - - ESE 7 9 4 5 - - -
27/04:00am - - - - - E 7 9 4 5 - - -
27/03:30am - - - - - SE 6 7 3 4 - - -
27/03:00am - - - - - SE 9 11 5 6 - - -
27/02:30am - - - - - E 9 15 5 8 - - -

Latest Capital City Observations: Canberra | Sydney | Melbourne | Brisbane | Adelaide | Perth | Hobart | Darwin

Other Formats:

Comma delimited format used in spreadsheet applications
http://www.bom.gov.au/fwo/IDV60901/IDV60901.95872.axf

JavaScript Object Notation format (JSON) in row-major order
http://www.bom.gov.au/fwo/IDV60901/IDV60901.95872.json